Time;durP1;ratioP1;P1;durP2;ratioP2;P2;SDS_P1;SDS_P2;PMS_P1;PMS_P2;Temp;Humidity;BMP_temperature;BMP_pressure;BME280_temperature;BME280_humidity;BME280_pressure;Samples;Min_cycle;Max_cycle;Signal;HPM_P1;HPM_P2
2023/03/24 00:02:12;;;;;;;1.60;1.30;;;15.60;78.70;;;;;;4900774;29;20028;-83
2023/03/24 00:04:41;;;;;;;1.77;1.45;;;15.60;78.70;;;;;;4901377;29;20051;-83
2023/03/24 00:07:14;;;;;;;1.55;1.30;;;15.60;78.70;;;;;;4900463;29;20036;-83
2023/03/24 00:09:43;;;;;;;1.95;1.30;;;15.60;78.70;;;;;;4916274;29;20025;-83
2023/03/24 00:12:10;;;;;;;1.80;1.48;;;15.50;78.70;;;;;;4915971;29;20024;-83
2023/03/24 00:14:40;;;;;;;2.22;1.50;;;15.50;78.70;;;;;;4900509;29;20044;-83
2023/03/24 00:17:12;;;;;;;1.95;1.50;;;15.50;78.70;;;;;;4903065;29;20028;-84
2023/03/24 00:19:39;;;;;;;2.35;1.63;;;15.50;78.70;;;;;;4904212;29;20032;-83
2023/03/24 00:22:13;;;;;;;2.33;1.50;;;15.50;78.70;;;;;;4888564;29;20474;-84
2023/03/24 00:24:45;;;;;;;2.05;1.40;;;15.50;78.70;;;;;;4904873;29;20032;-84
2023/03/24 00:27:12;;;;;;;1.77;1.40;;;15.50;78.70;;;;;;4888830;29;20036;-84
2023/03/24 00:29:40;;;;;;;2.13;1.67;;;15.50;78.80;;;;;;4888257;29;20060;-84
2023/03/24 00:32:06;;;;;;;1.52;1.30;;;15.50;78.80;;;;;;4904163;29;20036;-84
2023/03/24 00:34:37;;;;;;;1.48;1.38;;;15.40;78.70;;;;;;4904543;29;20469;-85
2023/03/24 00:37:05;;;;;;;1.58;1.40;;;15.50;78.80;;;;;;4889563;29;20041;-84
2023/03/24 00:39:31;;;;;;;2.15;1.40;;;15.50;78.80;;;;;;4903817;29;20557;-84
2023/03/24 00:41:57;;;;;;;1.58;1.25;;;15.50;78.80;;;;;;4920204;29;20032;-84
2023/03/24 00:44:23;;;;;;;1.90;1.42;;;15.50;78.80;;;;;;4888804;29;20020;-84
2023/03/24 00:46:54;;;;;;;1.88;1.48;;;15.40;78.80;;;;;;4887604;29;20060;-84
2023/03/24 00:49:41;;;;;;;1.50;1.40;;;15.40;78.80;;;;;;4904436;29;20052;-84
2023/03/24 00:52:19;;;;;;;1.50;1.40;;;15.40;79.40;;;;;;4903628;29;20032;-84
2023/03/24 00:54:53;;;;;;;2.90;1.70;;;15.40;78.80;;;;;;4904058;29;20029;-84
2023/03/24 00:57:24;;;;;;;2.40;1.50;;;15.40;78.80;;;;;;4903968;29;20036;-84
2023/03/24 00:59:53;;;;;;;1.50;1.25;;;15.40;78.80;;;;;;4920246;29;20095;-84
2023/03/24 01:02:23;;;;;;;1.90;1.40;;;15.40;78.80;;;;;;4919180;29;20032;-84
2023/03/24 01:04:55;;;;;;;2.45;1.55;;;15.40;78.80;;;;;;4903415;29;20042;-84
2023/03/24 01:07:23;;;;;;;1.52;1.30;;;15.40;78.80;;;;;;4903119;29;20044;-85
2023/03/24 01:09:59;;;;;;;2.58;1.50;;;15.30;78.80;;;;;;4903335;29;20381;-84
2023/03/24 01:12:33;;;;;;;1.85;1.60;;;15.30;79.50;;;;;;4903448;29;20046;-84
2023/03/24 01:15:04;;;;;;;1.63;1.50;;;15.30;78.80;;;;;;4903570;29;20024;-84
2023/03/24 01:17:31;;;;;;;1.60;1.42;;;15.30;78.80;;;;;;4903415;29;20036;-84
2023/03/24 01:19:57;;;;;;;1.65;1.30;;;15.30;78.80;;;;;;4903288;29;20035;-85
2023/03/24 01:22:28;;;;;;;1.50;1.40;;;15.30;78.80;;;;;;4903121;29;20473;-84
2023/03/24 01:24:54;;;;;;;1.73;1.40;;;15.30;78.90;;;;;;4903830;29;20028;-85
2023/03/24 01:27:20;;;;;;;1.63;1.50;;;15.30;78.90;;;;;;4886996;29;20446;-84
2023/03/24 01:29:46;;;;;;;1.60;1.42;;;15.30;78.90;;;;;;4887845;29;20032;-83
2023/03/24 01:32:11;;;;;;;2.10;1.42;;;15.30;78.90;;;;;;4903145;29;20024;-84
2023/03/24 01:34:37;;;;;;;3.20;1.52;;;15.30;78.90;;;;;;4887317;29;20405;-84
2023/03/24 01:37:03;;;;;;;2.22;1.60;;;15.30;78.90;;;;;;4902928;29;20028;-84
2023/03/24 01:39:29;;;;;;;1.65;1.40;;;15.30;78.90;;;;;;4856541;29;20032;-84
2023/03/24 01:41:55;;;;;;;1.40;1.30;;;15.30;78.90;;;;;;4887341;29;20050;-84
2023/03/24 01:44:34;;;;;;;2.33;1.70;;;15.30;78.90;;;;;;4902999;29;20079;-85
2023/03/24 01:47:01;;;;;;;1.50;1.40;;;15.20;78.90;;;;;;4902540;29;20486;-84
2023/03/24 01:49:33;;;;;;;1.98;1.50;;;15.20;78.90;;;;;;4902511;29;20394;-83
2023/03/24 01:52:02;;;;;;;1.83;1.52;;;15.30;78.90;;;;;;4902704;29;20029;-85
2023/03/24 01:54:33;;;;;;;1.40;1.30;;;15.20;78.90;;;;;;4902945;29;20051;-85
2023/03/24 01:57:22;;;;;;;2.42;1.73;;;15.20;78.90;;;;;;4902625;29;20036;-85
2023/03/24 01:59:52;;;;;;;1.67;1.35;;;15.20;78.90;;;;;;4902525;29;20040;-85
2023/03/24 02:02:44;;;;;;;2.28;1.55;;;15.20;78.90;;;;;;4918549;29;20040;-84
2023/03/24 02:05:13;;;;;;;1.85;1.48;;;15.20;78.90;;;;;;4902668;29;20055;-85
2023/03/24 02:08:21;;;;;;;1.70;1.60;;;15.20;78.90;;;;;;4872199;29;20036;-85
2023/03/24 02:10:48;;;;;;;1.67;1.53;;;15.20;79.10;;;;;;4902141;29;20046;-85
2023/03/24 02:13:14;;;;;;;1.88;1.52;;;15.20;78.90;;;;;;4902401;29;20063;-85
2023/03/24 02:16:04;;;;;;;2.30;1.70;;;15.20;79.00;;;;;;4886791;29;20036;-85
2023/03/24 02:18:51;;;;;;;2.05;1.50;;;15.20;79.10;;;;;;4886506;29;20036;-84
2023/03/24 02:21:20;;;;;;;1.98;1.50;;;15.20;79.10;;;;;;4902309;29;20032;-85
2023/03/24 02:23:58;;;;;;;1.73;1.52;;;15.20;79.00;;;;;;4901858;29;20047;-85
2023/03/24 02:26:25;;;;;;;1.77;1.40;;;15.10;79.00;;;;;;4918789;29;20101;-85
2023/03/24 02:29:28;;;;;;;2.28;1.70;;;15.10;79.00;;;;;;4901733;29;20051;-85
2023/03/24 02:32:15;;;;;;;1.52;1.42;;;15.20;79.20;;;;;;4901984;29;20476;-84
2023/03/24 02:35:15;;;;;;;1.63;1.50;;;15.20;79.20;;;;;;4902255;29;20503;-85
2023/03/24 02:38:03;;;;;;;2.00;1.42;;;15.10;79.10;;;;;;4879691;29;20046;-85
2023/03/24 02:40:49;;;;;;;1.92;1.50;;;15.10;79.00;;;;;;4918596;29;20107;-85
2023/03/24 02:43:26;;;;;;;1.90;1.42;;;15.10;79.80;;;;;;4902216;29;20127;-86
2023/03/24 02:45:52;;;;;;;2.03;1.40;;;15.20;79.10;;;;;;4901522;29;20048;-85
2023/03/24 02:49:03;;;;;;;1.50;1.30;;;15.10;79.10;;;;;;4918320;29;20071;-86
2023/03/24 02:51:41;;;;;;;1.80;1.50;;;15.10;79.20;;;;;;4863728;29;20044;-85
2023/03/24 02:54:28;;;;;;;1.50;1.35;;;15.10;79.10;;;;;;4901708;29;20032;-85
2023/03/24 02:57:03;;;;;;;2.03;1.50;;;15.10;79.10;;;;;;4901684;29;20040;-85
2023/03/24 02:59:56;;;;;;;1.70;1.60;;;15.10;79.10;;;;;;4904552;29;20424;-85
2023/03/24 03:02:47;;;;;;;2.33;1.35;;;15.10;79.10;;;;;;4917885;29;20389;-85
2023/03/24 03:05:36;;;;;;;1.60;1.50;;;15.10;79.10;;;;;;4901680;29;20461;-85
2023/03/24 03:08:06;;;;;;;1.40;1.30;;;15.10;79.20;;;;;;4885710;29;20390;-85
2023/03/24 03:10:39;;;;;;;2.13;1.60;;;15.10;79.20;;;;;;4901492;29;20487;-85
2023/03/24 03:13:41;;;;;;;1.63;1.52;;;15.10;79.20;;;;;;4885856;29;20080;-85
2023/03/24 03:16:18;;;;;;;2.30;1.52;;;15.10;79.20;;;;;;4869250;29;20100;-85
2023/03/24 03:18:58;;;;;;;2.10;1.38;;;15.10;79.20;;;;;;4901682;29;20036;-86
2023/03/24 03:21:28;;;;;;;1.98;1.58;;;15.10;79.20;;;;;;4917745;29;20032;-85
2023/03/24 03:24:01;;;;;;;2.03;1.50;;;15.10;79.20;;;;;;4901417;29;20028;-85
2023/03/24 03:26:31;;;;;;;2.35;1.60;;;15.10;79.30;;;;;;4901433;29;20473;-85
2023/03/24 03:29:03;;;;;;;1.40;1.30;;;15.10;79.30;;;;;;4918048;29;20040;-85
2023/03/24 03:31:41;;;;;;;2.10;1.58;;;15.10;79.30;;;;;;4901665;29;20114;-85
2023/03/24 03:34:12;;;;;;;2.65;1.50;;;15.10;79.30;;;;;;4901188;29;20124;-85
2023/03/24 03:36:49;;;;;;;2.17;1.40;;;15.10;79.30;;;;;;4917538;29;20033;-85
2023/03/24 03:39:23;;;;;;;1.63;1.25;;;15.10;79.30;;;;;;4901740;29;20051;-85
2023/03/24 03:41:49;;;;;;;1.88;1.50;;;15.10;79.30;;;;;;4901106;29;20469;-85
2023/03/24 03:44:15;;;;;;;1.58;1.40;;;15.10;79.20;;;;;;4901220;29;20029;-83
2023/03/24 03:46:42;;;;;;;1.90;1.30;;;15.10;79.30;;;;;;4869489;29;20120;-84
2023/03/24 03:49:11;;;;;;;1.35;1.17;;;15.10;79.30;;;;;;4886478;29;20388;-83
2023/03/24 03:51:38;;;;;;;1.55;1.38;;;15.10;79.30;;;;;;4920479;29;20036;-85
2023/03/24 03:54:11;;;;;;;1.33;1.23;;;15.00;79.20;;;;;;4873538;29;20036;-84
2023/03/24 03:56:38;;;;;;;1.55;1.30;;;15.10;79.30;;;;;;4905305;29;20039;-84
2023/03/24 03:59:25;;;;;;;1.92;1.50;;;15.10;79.30;;;;;;4906770;29;20503;-84
2023/03/24 04:01:52;;;;;;;1.60;1.30;;;15.00;79.30;;;;;;4889185;29;20502;-85
2023/03/24 04:04:55;;;;;;;1.95;1.55;;;15.00;79.30;;;;;;4906860;29;20381;-83
2023/03/24 04:08:02;;;;;;;2.05;1.35;;;15.00;79.30;;;;;;4905856;29;20047;-85
2023/03/24 04:11:05;;;;;;;1.88;1.27;;;15.00;79.20;;;;;;4921171;29;20393;-84
2023/03/24 04:13:37;;;;;;;1.35;1.20;;;15.00;79.30;;;;;;4904013;29;20039;-84
2023/03/24 04:16:52;;;;;;;1.60;1.20;;;14.90;79.20;;;;;;4906682;29;20028;-84
2023/03/24 04:19:31;;;;;;;2.55;1.30;;;14.90;79.30;;;;;;4905010;29;20043;-84
2023/03/24 04:22:29;;;;;;;1.67;1.10;;;14.90;79.30;;;;;;4904930;29;20036;-85
2023/03/24 04:25:28;;;;;;;1.20;1.10;;;14.90;79.40;;;;;;4919950;29;20040;-84
2023/03/24 04:28:09;;;;;;;1.25;1.10;;;14.90;79.30;;;;;;4888223;29;20069;-84
2023/03/24 04:30:42;;;;;;;1.80;1.13;;;14.90;79.40;;;;;;4920326;29;20038;-84
2023/03/24 04:33:32;;;;;;;1.08;1.02;;;14.80;79.30;;;;;;4889347;29;20491;-83
2023/03/24 04:36:15;;;;;;;1.40;1.05;;;14.80;79.40;;;;;;4903713;29;20028;-84
2023/03/24 04:38:53;;;;;;;3.58;1.40;;;14.80;79.30;;;;;;4905077;29;20170;-84
2023/03/24 04:41:33;;;;;;;2.67;0.98;;;14.80;79.30;;;;;;4919623;29;20036;-83
2023/03/24 04:44:16;;;;;;;3.00;1.40;;;14.80;79.30;;;;;;4876521;29;20036;-83
2023/03/24 04:47:01;;;;;;;1.75;1.27;;;14.80;79.30;;;;;;4889989;29;20060;-83
2023/03/24 04:49:27;;;;;;;2.83;1.23;;;14.80;79.30;;;;;;4903726;29;20040;-83
2023/03/24 04:51:54;;;;;;;1.20;1.10;;;14.70;79.30;;;;;;4887744;29;20029;-84
2023/03/24 04:54:24;;;;;;;3.55;1.40;;;14.70;79.30;;;;;;4903601;29;20060;-83
2023/03/24 04:56:58;;;;;;;2.53;1.20;;;14.70;79.30;;;;;;4889820;29;20028;-84
2023/03/24 04:59:46;;;;;;;1.75;1.27;;;14.70;79.30;;;;;;4907972;29;20032;-83
2023/03/24 05:02:13;;;;;;;1.45;1.15;;;14.70;79.30;;;;;;4857888;29;20056;-84
2023/03/24 05:04:44;;;;;;;1.90;1.30;;;14.60;79.30;;;;;;4875177;29;20057;-83
2023/03/24 05:07:23;;;;;;;1.50;1.05;;;14.60;79.20;;;;;;4890457;29;20048;-83
2023/03/24 05:09:54;;;;;;;3.47;1.30;;;14.60;79.90;;;;;;4859003;29;20043;-84
2023/03/24 05:12:20;;;;;;;1.45;1.20;;;14.60;79.30;;;;;;4903089;29;20545;-82
2023/03/24 05:15:21;;;;;;;2.10;1.20;;;14.60;79.30;;;;;;4891105;29;20481;-83
2023/03/24 05:17:51;;;;;;;2.50;1.30;;;14.60;79.30;;;;;;4858403;29;20079;-82
2023/03/24 05:20:18;;;;;;;2.30;1.30;;;14.60;79.30;;;;;;4902819;29;20036;-84
2023/03/24 05:22:49;;;;;;;2.30;1.30;;;14.50;79.30;;;;;;4902883;29;20067;-84
2023/03/24 05:25:16;;;;;;;2.70;1.38;;;14.50;79.30;;;;;;4887937;29;20560;-82
2023/03/24 05:27:42;;;;;;;1.95;1.30;;;14.50;79.30;;;;;;4903004;29;20450;-85
2023/03/24 05:30:19;;;;;;;2.38;1.50;;;14.50;79.30;;;;;;4904423;29;20537;-87
2023/03/24 05:32:47;;;;;;;3.45;1.40;;;14.50;79.30;;;;;;4857790;29;20036;-86
2023/03/24 05:35:13;;;;;;;2.03;1.30;;;14.40;79.30;;;;;;4887718;29;20064;-84
2023/03/24 05:37:41;;;;;;;3.08;1.42;;;14.40;79.30;;;;;;4888462;29;20052;-87
2023/03/24 05:40:07;;;;;;;2.13;1.48;;;14.40;79.30;;;;;;4903482;29;20036;-87
2023/03/24 05:42:52;;;;;;;3.42;1.63;;;14.40;79.40;;;;;;4877270;29;20605;-84
2023/03/24 05:45:21;;;;;;;1.90;1.35;;;14.30;79.30;;;;;;4902961;29;20043;-88
2023/03/24 05:47:47;;;;;;;2.63;1.77;;;14.30;79.30;;;;;;4886741;29;20058;-86
2023/03/24 05:50:15;;;;;;;3.35;1.73;;;14.30;79.40;;;;;;4886924;29;20040;-83
2023/03/24 05:52:45;;;;;;;1.98;1.27;;;14.30;79.40;;;;;;4886665;29;20404;-82
2023/03/24 05:55:27;;;;;;;5.63;1.90;;;14.30;79.40;;;;;;4901712;29;20127;-82
2023/03/24 05:58:03;;;;;;;4.68;1.58;;;14.30;79.50;;;;;;4887890;29;20051;-83
2023/03/24 06:00:47;;;;;;;2.20;1.50;;;14.20;79.40;;;;;;4918214;29;20028;-83
2023/03/24 06:03:21;;;;;;;;;;;14.20;79.40;;;;;;4887762;29;20493;-83
2023/03/24 06:05:59;;;;;;;2.45;1.60;;;14.20;79.40;;;;;;4902016;29;20002;-86
2023/03/24 06:08:27;;;;;;;2.92;1.40;;;14.20;79.40;;;;;;4870838;29;20143;-84
2023/03/24 06:10:57;;;;;;;2.60;1.55;;;14.10;79.40;;;;;;4886564;29;20114;-84
2023/03/24 06:13:23;;;;;;;3.03;1.45;;;14.10;79.40;;;;;;4885883;29;20070;-84
2023/03/24 06:15:49;;;;;;;2.35;1.58;;;14.10;79.40;;;;;;4886068;29;20020;-84
2023/03/24 06:18:34;;;;;;;3.42;1.60;;;14.10;79.50;;;;;;4889068;29;20040;-84
2023/03/24 06:21:07;;;;;;;3.35;1.67;;;14.10;79.40;;;;;;4902822;29;20058;-84
2023/03/24 06:23:33;;;;;;;2.58;1.70;;;14.00;79.40;;;;;;4902347;29;20036;-84
2023/03/24 06:26:09;;;;;;;4.57;1.77;;;14.00;79.40;;;;;;4887348;29;20040;-83
2023/03/24 06:28:38;;;;;;;2.22;1.50;;;14.00;79.40;;;;;;4901416;29;20036;-82
2023/03/24 06:31:13;;;;;;;4.18;2.00;;;14.00;79.40;;;;;;4858044;29;20096;-84
2023/03/24 06:33:41;;;;;;;3.42;1.88;;;14.00;79.40;;;;;;4901284;29;20131;-84
2023/03/24 06:36:08;;;;;;;3.00;1.80;;;13.90;79.40;;;;;;4901866;29;20088;-84
2023/03/24 06:38:34;;;;;;;3.95;1.98;;;14.00;79.50;;;;;;4901607;29;20393;-84
2023/03/24 06:41:03;;;;;;;2.50;1.60;;;13.90;79.40;;;;;;4856089;29;20039;-84
2023/03/24 06:43:31;;;;;;;2.28;1.70;;;13.90;79.40;;;;;;4885950;29;20032;-84
2023/03/24 06:45:57;;;;;;;3.80;1.77;;;13.90;79.50;;;;;;4901366;29;20060;-85
2023/03/24 06:48:24;;;;;;;3.58;1.60;;;13.90;79.50;;;;;;4901483;29;20044;-84
2023/03/24 06:50:54;;;;;;;3.25;1.98;;;13.90;79.50;;;;;;4886505;29;20144;-84
2023/03/24 06:53:21;;;;;;;2.70;1.63;;;13.90;79.50;;;;;;4886153;29;20038;-85
2023/03/24 06:55:49;;;;;;;2.90;1.90;;;13.90;79.50;;;;;;4917023;29;20038;-84
2023/03/24 06:58:16;;;;;;;2.58;1.90;;;13.90;79.50;;;;;;4901466;29;20040;-83
2023/03/24 07:01:00;;;;;;;4.35;1.88;;;13.90;79.40;;;;;;4888097;29;20039;-84
2023/03/24 07:03:34;;;;;;;3.25;1.90;;;13.90;79.40;;;;;;4888034;29;20112;-83
2023/03/24 07:06:21;;;;;;;3.92;1.85;;;13.90;79.40;;;;;;4917465;29;20040;-83
2023/03/24 07:08:51;;;;;;;2.30;1.77;;;13.80;79.30;;;;;;4886412;29;20103;-85
2023/03/24 07:11:18;;;;;;;4.28;2.30;;;13.90;79.30;;;;;;4886043;29;20131;-86
2023/03/24 07:13:56;;;;;;;3.03;1.80;;;13.80;79.30;;;;;;4901321;29;20036;-84
2023/03/24 07:16:22;;;;;;;2.55;1.58;;;13.80;79.30;;;;;;4885588;29;20092;-84
2023/03/24 07:18:56;;;;;;;3.45;2.25;;;13.80;79.20;;;;;;4887419;29;20088;-87
2023/03/24 07:21:23;;;;;;;3.30;1.77;;;13.80;79.30;;;;;;4886116;29;20037;-88
2023/03/24 07:23:50;;;;;;;2.03;1.80;;;13.80;79.30;;;;;;4886208;29;20096;-88
2023/03/24 07:26:20;;;;;;;3.83;1.75;;;13.80;79.30;;;;;;4890341;29;20036;-85
2023/03/24 07:28:46;;;;;;;3.88;1.67;;;13.80;79.30;;;;;;4905303;29;20052;-87
2023/03/24 07:31:21;;;;;;;3.75;2.00;;;13.80;79.30;;;;;;4890926;29;20037;-85
2023/03/24 07:33:52;;;;;;;3.22;1.80;;;13.80;79.20;;;;;;4861519;29;20043;-86
2023/03/24 07:36:18;;;;;;;2.38;1.65;;;13.80;79.20;;;;;;4889544;29;20115;-88
2023/03/24 07:38:44;;;;;;;3.38;1.98;;;13.80;79.20;;;;;;4873615;29;20500;-84
2023/03/24 07:41:21;;;;;;;2.45;1.73;;;13.80;79.20;;;;;;4906561;29;20043;-85
2023/03/24 07:43:51;;;;;;;3.15;2.13;;;13.80;79.20;;;;;;4905232;29;20119;-85
2023/03/24 07:46:24;;;;;;;2.67;1.90;;;13.80;79.20;;;;;;4891191;29;20055;-86
2023/03/24 07:48:51;;;;;;;3.00;1.85;;;13.80;79.20;;;;;;4889070;29;20044;-85
2023/03/24 07:51:18;;;;;;;3.55;1.90;;;13.80;79.20;;;;;;4905088;29;20040;-85
2023/03/24 07:53:51;;;;;;;3.50;1.80;;;13.80;79.20;;;;;;4890268;29;20040;-86
2023/03/24 07:56:31;;;;;;;2.90;1.85;;;13.80;79.20;;;;;;4891521;29;20040;-86
2023/03/24 07:59:00;;;;;;;2.83;1.63;;;13.80;79.10;;;;;;4889239;29;20206;-86
2023/03/24 08:01:48;;;;;;;2.88;1.60;;;13.80;79.20;;;;;;4897399;29;20047;-85
2023/03/24 08:04:15;;;;;;;2.22;1.50;;;13.80;79.20;;;;;;4859108;29;20095;-86
2023/03/24 08:07:13;;;;;;;3.58;2.00;;;13.80;79.10;;;;;;4868275;29;20032;-85
2023/03/24 08:09:40;;;;;;;3.00;1.85;;;13.90;79.20;;;;;;4889922;29;20042;-85
2023/03/24 08:12:06;;;;;;;3.17;2.13;;;13.90;79.20;;;;;;4906185;29;20465;-85
2023/03/24 08:14:32;;;;;;;2.63;1.80;;;13.90;79.20;;;;;;4906349;29;20033;-87
2023/03/24 08:16:57;;;;;;;2.72;1.67;;;13.80;79.10;;;;;;4906288;29;20033;-87
2023/03/24 08:19:23;;;;;;;2.85;1.80;;;13.80;79.20;;;;;;4874594;29;20409;-85
2023/03/24 08:21:49;;;;;;;2.92;1.80;;;13.90;79.20;;;;;;4906423;29;20066;-87
2023/03/24 08:24:16;;;;;;;4.82;2.00;;;13.90;79.20;;;;;;4905495;29;20123;-86
2023/03/24 08:26:41;;;;;;;2.78;1.83;;;13.90;79.20;;;;;;4873708;29;20123;-87
2023/03/24 08:29:08;;;;;;;2.78;1.70;;;13.90;79.20;;;;;;4888285;29;20048;-86
2023/03/24 08:31:35;;;;;;;3.80;1.85;;;13.90;79.20;;;;;;4904073;29;20059;-86
2023/03/24 08:34:03;;;;;;;3.67;2.05;;;13.90;79.20;;;;;;4904268;29;20032;-86
2023/03/24 08:36:29;;;;;;;3.58;1.80;;;13.90;79.20;;;;;;4886953;29;20035;-86
2023/03/24 08:38:55;;;;;;;4.63;2.13;;;13.90;79.20;;;;;;4904127;29;20040;-86
2023/03/24 08:41:29;;;;;;;3.60;1.70;;;13.90;79.20;;;;;;4888268;29;20036;-86
2023/03/24 08:43:55;;;;;;;3.30;1.58;;;14.00;79.30;;;;;;4903909;29;20040;-86
2023/03/24 08:46:21;;;;;;;2.50;1.63;;;13.90;79.20;;;;;;4888757;29;20048;-86
2023/03/24 08:48:47;;;;;;;5.47;2.10;;;14.00;79.30;;;;;;4904172;29;20485;-86
2023/03/24 08:51:15;;;;;;;2.72;1.73;;;14.00;79.20;;;;;;4905100;29;20135;-86
2023/03/24 08:53:41;;;;;;;4.50;2.20;;;14.00;79.30;;;;;;4905163;29;20201;-87
2023/03/24 08:56:06;;;;;;;3.88;1.90;;;14.00;79.20;;;;;;4874554;29;20024;-87
2023/03/24 08:58:32;;;;;;;3.17;1.52;;;14.00;79.20;;;;;;4888414;29;20042;-90
2023/03/24 09:00:58;;;;;;;3.90;2.00;;;14.00;79.20;;;;;;4904116;29;20025;-91
2023/03/24 09:03:25;;;;;;;2.85;1.80;;;14.10;79.20;;;;;;4888472;29;20393;-89
2023/03/24 09:05:55;;;;;;;3.65;1.92;;;14.10;79.20;;;;;;4919796;29;20078;-89
2023/03/24 09:08:21;;;;;;;2.33;1.80;;;14.10;79.20;;;;;;4904069;29;20047;-86
2023/03/24 09:10:47;;;;;;;3.05;1.65;;;14.10;79.10;;;;;;4888589;29;20378;-89
2023/03/24 09:13:14;;;;;;;3.60;2.20;;;14.10;79.00;;;;;;4903720;29;20036;-87
2023/03/24 09:15:46;;;;;;;3.58;2.10;;;14.20;79.20;;;;;;4872618;29;20025;-87
2023/03/24 09:18:12;;;;;;;3.92;2.00;;;14.20;79.10;;;;;;4920082;29;20036;-88
2023/03/24 09:20:37;;;;;;;3.30;1.95;;;14.20;79.00;;;;;;4887716;29;20080;-87
2023/03/24 09:23:03;;;;;;;2.13;1.60;;;14.20;79.00;;;;;;4872364;29;20032;-87
2023/03/24 09:25:29;;;;;;;3.90;2.00;;;14.20;79.00;;;;;;4887798;29;20034;-87
2023/03/24 09:27:55;;;;;;;2.95;1.75;;;14.20;78.90;;;;;;4887620;29;20573;-87
2023/03/24 09:30:21;;;;;;;3.55;1.90;;;14.30;79.00;;;;;;4903218;29;20032;-85
2023/03/24 09:32:47;;;;;;;3.03;1.90;;;14.30;79.00;;;;;;4903181;29;20032;-85
2023/03/24 09:35:14;;;;;;;3.35;2.10;;;14.40;79.00;;;;;;4856498;29;20156;-84
2023/03/24 09:37:42;;;;;;;4.18;2.08;;;14.30;78.90;;;;;;4902626;29;20040;-84
2023/03/24 09:40:22;;;;;;;3.72;2.00;;;14.40;78.90;;;;;;4902664;29;20028;-85
2023/03/24 09:43:01;;;;;;;3.88;2.15;;;14.40;79.00;;;;;;4902862;29;20485;-84
2023/03/24 09:45:31;;;;;;;3.35;1.80;;;14.50;79.00;;;;;;4902896;29;20032;-85
2023/03/24 09:48:13;;;;;;;3.10;1.95;;;14.50;79.00;;;;;;4901761;29;20052;-84
2023/03/24 09:50:48;;;;;;;2.72;1.90;;;14.40;78.90;;;;;;4902067;29;20175;-84
2023/03/24 09:53:32;;;;;;;2.20;1.48;;;14.50;78.90;;;;;;4902412;29;20039;-84
2023/03/24 09:56:10;;;;;;;3.70;2.00;;;14.50;78.90;;;;;;4902343;29;20040;-85
2023/03/24 09:58:40;;;;;;;2.83;1.73;;;14.60;79.60;;;;;;4902296;29;20029;-84
2023/03/24 10:01:15;;;;;;;2.08;1.63;;;14.60;78.80;;;;;;4872384;29;20032;-84
2023/03/24 10:03:43;;;;;;;2.85;1.70;;;14.60;78.80;;;;;;4902104;29;20036;-84
2023/03/24 10:06:08;;;;;;;2.92;1.80;;;14.70;78.80;;;;;;4902209;29;20032;-85
2023/03/24 10:08:35;;;;;;;3.55;2.08;;;14.70;78.70;;;;;;4901937;29;20089;-84
2023/03/24 10:11:14;;;;;;;1.98;1.50;;;14.70;78.70;;;;;;4901854;29;20112;-84
2023/03/24 10:13:53;;;;;;;3.10;1.80;;;14.80;78.70;;;;;;4902305;29;20067;-84
2023/03/24 10:16:45;;;;;;;1.73;1.48;;;14.80;78.60;;;;;;4919274;29;20024;-84
2023/03/24 10:19:26;;;;;;;2.75;1.67;;;14.80;78.60;;;;;;4919772;29;20095;-84
2023/03/24 10:22:15;;;;;;;3.78;1.83;;;14.80;78.60;;;;;;4902466;29;20116;-83
2023/03/24 10:24:48;;;;;;;1.95;1.63;;;14.80;78.60;;;;;;4876508;29;20514;-85
2023/03/24 10:27:22;;;;;;;3.80;2.05;;;14.90;78.60;;;;;;4886762;29;20540;-85
2023/03/24 10:29:54;;;;;;;4.00;1.70;;;14.90;78.70;;;;;;4902460;29;20036;-84
2023/03/24 10:32:31;;;;;;;2.70;1.80;;;14.90;78.60;;;;;;4919159;29;20032;-83
2023/03/24 10:35:06;;;;;;;2.55;1.70;;;15.00;78.70;;;;;;4886298;29;20117;-83
2023/03/24 10:37:32;;;;;;;2.17;1.60;;;15.00;78.60;;;;;;4903353;29;20032;-87
2023/03/24 10:39:59;;;;;;;3.85;1.98;;;15.00;78.70;;;;;;4903485;29;20064;-85
2023/03/24 10:42:30;;;;;;;2.85;1.55;;;15.00;78.60;;;;;;4887736;29;20020;-87
2023/03/24 10:44:57;;;;;;;3.67;1.80;;;15.00;78.60;;;;;;4920697;29;20034;-87
2023/03/24 10:47:29;;;;;;;3.67;1.73;;;15.00;78.60;;;;;;4903675;29;20112;-87
2023/03/24 10:50:04;;;;;;;3.15;2.05;;;15.10;78.70;;;;;;4903445;29;20032;-87
2023/03/24 10:52:41;;;;;;;4.93;1.80;;;15.10;78.70;;;;;;4903043;29;20031;-87
2023/03/24 10:55:13;;;;;;;2.50;1.77;;;15.10;79.20;;;;;;4902771;29;20028;-87
2023/03/24 10:58:00;;;;;;;2.47;1.52;;;15.10;78.50;;;;;;4902808;29;20038;-88
2023/03/24 11:00:30;;;;;;;3.15;1.67;;;15.20;78.60;;;;;;4916264;29;20036;-88
2023/03/24 11:03:10;;;;;;;3.15;1.70;;;15.20;78.50;;;;;;4902108;29;20398;-86
2023/03/24 11:05:39;;;;;;;3.00;1.48;;;15.20;78.60;;;;;;4886680;29;20063;-88
2023/03/24 11:08:29;;;;;;;3.63;1.42;;;15.20;78.50;;;;;;4917245;29;20055;-86
2023/03/24 11:10:55;;;;;;;4.22;1.75;;;15.30;78.60;;;;;;4902285;29;20108;-88
2023/03/24 11:13:33;;;;;;;3.53;1.60;;;15.30;78.50;;;;;;4886393;29;20449;-88
2023/03/24 11:16:15;;;;;;;3.03;1.58;;;15.30;78.60;;;;;;4885690;29;20047;-87
2023/03/24 11:19:00;;;;;;;2.88;1.70;;;15.40;78.60;;;;;;4901017;29;20028;-86
2023/03/24 11:21:33;;;;;;;2.50;1.55;;;15.40;78.50;;;;;;4901527;29;20111;-84
2023/03/24 11:24:03;;;;;;;3.47;1.58;;;15.40;78.40;;;;;;4885354;29;20028;-84
2023/03/24 11:26:37;;;;;;;3.67;1.70;;;15.40;78.40;;;;;;4901175;29;20126;-84
2023/03/24 11:29:13;;;;;;;2.58;1.50;;;15.50;78.40;;;;;;4902129;29;20525;-87
2023/03/24 11:31:40;;;;;;;2.85;1.45;;;15.50;78.40;;;;;;4902874;29;20040;-85
2023/03/24 11:34:19;;;;;;;4.25;1.85;;;15.50;78.30;;;;;;4901479;29;20057;-86
2023/03/24 11:36:49;;;;;;;3.78;1.55;;;15.60;78.40;;;;;;4918667;29;20024;-86
2023/03/24 11:39:27;;;;;;;2.78;1.50;;;15.60;78.40;;;;;;4901683;29;20060;-86
2023/03/24 11:42:13;;;;;;;2.05;1.55;;;15.60;78.40;;;;;;4900994;29;20036;-84
2023/03/24 11:44:52;;;;;;;2.95;1.45;;;15.70;78.40;;;;;;4899871;29;20119;-82
2023/03/24 11:47:26;;;;;;;1.48;1.38;;;15.70;78.40;;;;;;4900001;29;20482;-84
2023/03/24 11:50:23;;;;;;;3.33;1.42;;;15.70;78.40;;;;;;4899587;29;20048;-83
2023/03/24 11:52:54;;;;;;;1.67;1.48;;;15.70;78.30;;;;;;4897346;29;20047;-83
2023/03/24 11:55:39;;;;;;;2.05;1.42;;;15.80;78.30;;;;;;4916742;29;20078;-83
2023/03/24 11:58:46;;;;;;;2.78;1.50;;;15.80;78.30;;;;;;4900483;29;20043;-83
2023/03/24 12:01:21;;;;;;;3.08;1.52;;;15.90;78.30;;;;;;4810081;29;20030;-83
2023/03/24 12:03:55;;;;;;;1.77;1.40;;;15.90;78.20;;;;;;4906250;29;20522;-83
2023/03/24 12:06:33;;;;;;;1.98;1.30;;;15.90;78.20;;;;;;4899805;29;20040;-82
2023/03/24 12:09:35;;;;;;;1.40;1.30;;;16.00;78.30;;;;;;4900576;29;20095;-83
2023/03/24 12:12:36;;;;;;;1.85;1.35;;;16.00;78.30;;;;;;4872498;29;20040;-83
2023/03/24 12:15:29;;;;;;;2.42;1.40;;;16.00;78.30;;;;;;4878424;29;20040;-83
2023/03/24 12:18:19;;;;;;;3.50;1.58;;;16.00;78.30;;;;;;4904101;29;20430;-84
2023/03/24 12:21:25;;;;;;;1.40;1.30;;;16.00;78.30;;;;;;4903596;29;20087;-84
2023/03/24 12:24:00;;;;;;;1.52;1.30;;;16.10;78.30;;;;;;4869302;29;20079;-84
2023/03/24 12:26:28;;;;;;;4.38;1.70;;;16.10;78.30;;;;;;4888382;29;20483;-84
2023/03/24 12:29:00;;;;;;;3.00;1.63;;;16.10;78.30;;;;;;4903529;29;20067;-84
2023/03/24 12:31:40;;;;;;;1.80;1.40;;;16.10;78.30;;;;;;4903249;29;20040;-84
2023/03/24 12:34:16;;;;;;;2.05;1.30;;;16.10;78.30;;;;;;4904149;29;20054;-83
2023/03/24 12:36:52;;;;;;;3.03;1.60;;;16.10;78.30;;;;;;4920102;29;20469;-83
2023/03/24 12:39:54;;;;;;;2.67;1.67;;;16.10;78.20;;;;;;4919471;29;20040;-84
2023/03/24 12:42:22;;;;;;;3.05;1.40;;;16.10;78.30;;;;;;4874248;29;20044;-83
2023/03/24 12:45:16;;;;;;;2.50;1.30;;;16.10;78.20;;;;;;4888026;29;20385;-83
2023/03/24 12:48:21;;;;;;;1.75;1.40;;;16.10;78.30;;;;;;4903105;29;20404;-83
2023/03/24 12:51:14;;;;;;;1.33;1.20;;;16.10;78.30;;;;;;4879166;29;20489;-83
2023/03/24 12:54:10;;;;;;;2.30;1.40;;;16.10;78.20;;;;;;4903178;29;20028;-84
2023/03/24 12:57:06;;;;;;;2.08;1.30;;;16.10;78.30;;;;;;4903118;29;20067;-83
2023/03/24 12:59:43;;;;;;;1.20;1.10;;;16.10;78.30;;;;;;4867356;29;20195;-83
2023/03/24 13:02:22;;;;;;;1.52;1.20;;;16.10;78.30;;;;;;4887473;29;20485;-83
2023/03/24 13:04:51;;;;;;;1.45;1.10;;;16.10;78.30;;;;;;4903274;29;20032;-83
2023/03/24 13:07:20;;;;;;;1.33;1.10;;;16.10;78.30;;;;;;4902465;29;20028;-83
2023/03/24 13:09:53;;;;;;;1.10;1.10;;;16.10;78.30;;;;;;4902684;29;20040;-83
2023/03/24 13:12:22;;;;;;;1.90;1.20;;;16.10;78.30;;;;;;4902532;29;20039;-83
2023/03/24 13:14:56;;;;;;;1.60;1.20;;;16.20;78.40;;;;;;4902739;29;20456;-83
2023/03/24 13:17:47;;;;;;;1.25;1.10;;;16.10;79.00;;;;;;4902972;29;20039;-83
2023/03/24 13:20:22;;;;;;;3.03;1.30;;;16.10;78.50;;;;;;4902695;29;20032;-83
2023/03/24 13:22:50;;;;;;;2.42;1.20;;;16.20;78.50;;;;;;4902336;29;20489;-83
2023/03/24 13:25:47;;;;;;;1.55;1.30;;;16.20;78.50;;;;;;4902658;29;20032;-83
2023/03/24 13:28:21;;;;;;;2.10;1.33;;;16.20;78.50;;;;;;4902587;29;20492;-84